sensor_id;sensor_type;location;lat;lon;timestamp;temperature;humidity
20658;DHT22;10488;50.846;4.078;2023-12-29T00:00:36;10.60;99.90
20658;DHT22;10488;50.846;4.078;2023-12-29T00:03:02;10.70;99.90
20658;DHT22;10488;50.846;4.078;2023-12-29T00:05:28;10.70;99.90
20658;DHT22;10488;50.846;4.078;2023-12-29T00:07:53;10.70;99.90
20658;DHT22;10488;50.846;4.078;2023-12-29T00:10:19;10.60;99.90
20658;DHT22;10488;50.846;4.078;2023-12-29T00:12:44;10.60;99.90
20658;DHT22;10488;50.846;4.078;2023-12-29T00:15:10;10.60;99.90
20658;DHT22;10488;50.846;4.078;2023-12-29T00:17:36;10.60;99.90
20658;DHT22;10488;50.846;4.078;2023-12-29T00:20:06;10.60;99.90
20658;DHT22;10488;50.846;4.078;2023-12-29T00:22:34;10.60;99.90
20658;DHT22;10488;50.846;4.078;2023-12-29T00:25:00;10.60;99.90
20658;DHT22;10488;50.846;4.078;2023-12-29T00:27:25;10.60;99.90
20658;DHT22;10488;50.846;4.078;2023-12-29T00:29:51;10.50;99.90
20658;DHT22;10488;50.846;4.078;2023-12-29T00:32:16;10.50;99.90
20658;DHT22;10488;50.846;4.078;2023-12-29T00:34:42;10.50;99.90
20658;DHT22;10488;50.846;4.078;2023-12-29T00:37:08;10.40;99.90
20658;DHT22;10488;50.846;4.078;2023-12-29T00:39:34;10.60;99.90
20658;DHT22;10488;50.846;4.078;2023-12-29T00:42:04;10.60;99.90
20658;DHT22;10488;50.846;4.078;2023-12-29T00:44:30;10.60;99.90
20658;DHT22;10488;50.846;4.078;2023-12-29T00:46:56;10.50;99.90
20658;DHT22;10488;50.846;4.078;2023-12-29T00:49:21;10.60;99.90
20658;DHT22;10488;50.846;4.078;2023-12-29T00:51:48;10.60;99.90
20658;DHT22;10488;50.846;4.078;2023-12-29T00:54:14;10.60;99.90
20658;DHT22;10488;50.846;4.078;2023-12-29T00:56:39;10.50;99.90
20658;DHT22;10488;50.846;4.078;2023-12-29T00:59:05;10.50;99.90
20658;DHT22;10488;50.846;4.078;2023-12-29T01:01:34;10.50;99.90
20658;DHT22;10488;50.846;4.078;2023-12-29T01:04:03;10.50;99.90
20658;DHT22;10488;50.846;4.078;2023-12-29T01:06:29;10.50;99.90
20658;DHT22;10488;50.846;4.078;2023-12-29T01:08:55;10.50;99.90
20658;DHT22;10488;50.846;4.078;2023-12-29T01:11:20;10.40;99.90
20658;DHT22;10488;50.846;4.078;2023-12-29T01:13:46;10.50;99.90
20658;DHT22;10488;50.846;4.078;2023-12-29T01:16:11;10.50;99.90
20658;DHT22;10488;50.846;4.078;2023-12-29T01:18:37;10.60;99.90
20658;DHT22;10488;50.846;4.078;2023-12-29T01:21:03;10.50;99.90
20658;DHT22;10488;50.846;4.078;2023-12-29T01:23:28;10.50;99.90
20658;DHT22;10488;50.846;4.078;2023-12-29T01:25:54;10.60;99.90
20658;DHT22;10488;50.846;4.078;2023-12-29T01:28:20;10.60;99.90
20658;DHT22;10488;50.846;4.078;2023-12-29T01:30:45;10.60;99.90
20658;DHT22;10488;50.846;4.078;2023-12-29T01:33:11;10.50;99.90
20658;DHT22;10488;50.846;4.078;2023-12-29T01:35:38;10.60;99.90
20658;DHT22;10488;50.846;4.078;2023-12-29T01:38:04;10.50;99.90
20658;DHT22;10488;50.846;4.078;2023-12-29T01:40:29;10.60;99.90
20658;DHT22;10488;50.846;4.078;2023-12-29T01:42:55;10.50;99.90
20658;DHT22;10488;50.846;4.078;2023-12-29T01:45:24;10.60;99.90
20658;DHT22;10488;50.846;4.078;2023-12-29T01:47:51;10.60;99.90
20658;DHT22;10488;50.846;4.078;2023-12-29T01:50:19;10.60;99.90
20658;DHT22;10488;50.846;4.078;2023-12-29T01:52:48;10.60;99.90
20658;DHT22;10488;50.846;4.078;2023-12-29T01:55:18;10.60;99.90
20658;DHT22;10488;50.846;4.078;2023-12-29T01:57:44;10.60;99.90
20658;DHT22;10488;50.846;4.078;2023-12-29T02:00:11;10.60;99.90
20658;DHT22;10488;50.846;4.078;2023-12-29T02:02:38;10.60;99.90
20658;DHT22;10488;50.846;4.078;2023-12-29T02:05:05;10.60;99.90
20658;DHT22;10488;50.846;4.078;2023-12-29T02:07:31;10.70;99.90
20658;DHT22;10488;50.846;4.078;2023-12-29T02:09:58;10.60;99.90
20658;DHT22;10488;50.846;4.078;2023-12-29T02:12:25;10.60;99.90
20658;DHT22;10488;50.846;4.078;2023-12-29T02:14:51;10.60;99.90
20658;DHT22;10488;50.846;4.078;2023-12-29T02:19:47;10.60;99.90
20658;DHT22;10488;50.846;4.078;2023-12-29T02:22:15;10.70;99.90
20658;DHT22;10488;50.846;4.078;2023-12-29T02:24:50;10.60;99.90
20658;DHT22;10488;50.846;4.078;2023-12-29T02:28:19;10.60;99.90
20658;DHT22;10488;50.846;4.078;2023-12-29T02:30:25;10.60;99.90
20658;DHT22;10488;50.846;4.078;2023-12-29T02:32:55;10.60;99.90
20658;DHT22;10488;50.846;4.078;2023-12-29T02:35:24;10.70;99.90
20658;DHT22;10488;50.846;4.078;2023-12-29T02:37:51;10.60;99.90
20658;DHT22;10488;50.846;4.078;2023-12-29T02:40:17;10.70;99.90
20658;DHT22;10488;50.846;4.078;2023-12-29T02:42:47;10.60;99.90
20658;DHT22;10488;50.846;4.078;2023-12-29T02:45:14;10.60;99.90
20658;DHT22;10488;50.846;4.078;2023-12-29T02:47:40;10.70;99.90
20658;DHT22;10488;50.846;4.078;2023-12-29T02:50:05;10.60;99.90
20658;DHT22;10488;50.846;4.078;2023-12-29T02:52:31;10.60;99.90
20658;DHT22;10488;50.846;4.078;2023-12-29T02:54:57;10.60;99.90
20658;DHT22;10488;50.846;4.078;2023-12-29T02:57:22;10.60;99.90
20658;DHT22;10488;50.846;4.078;2023-12-29T02:59:48;10.60;99.90
20658;DHT22;10488;50.846;4.078;2023-12-29T03:02:13;10.60;99.90
20658;DHT22;10488;50.846;4.078;2023-12-29T03:04:39;10.50;99.90
20658;DHT22;10488;50.846;4.078;2023-12-29T03:07:05;10.40;99.90
20658;DHT22;10488;50.846;4.078;2023-12-29T03:09:30;10.60;99.90
20658;DHT22;10488;50.846;4.078;2023-12-29T03:11:56;10.40;99.90
20658;DHT22;10488;50.846;4.078;2023-12-29T03:14:21;10.30;99.90
20658;DHT22;10488;50.846;4.078;2023-12-29T03:16:47;10.20;99.90
20658;DHT22;10488;50.846;4.078;2023-12-29T03:19:13;10.20;99.90
20658;DHT22;10488;50.846;4.078;2023-12-29T03:21:38;10.20;99.90
20658;DHT22;10488;50.846;4.078;2023-12-29T03:24:04;10.20;99.90
20658;DHT22;10488;50.846;4.078;2023-12-29T03:26:30;10.20;99.90
20658;DHT22;10488;50.846;4.078;2023-12-29T03:28:55;10.20;99.90
20658;DHT22;10488;50.846;4.078;2023-12-29T03:31:21;10.10;99.90
20658;DHT22;10488;50.846;4.078;2023-12-29T03:33:47;10.10;99.90
20658;DHT22;10488;50.846;4.078;2023-12-29T03:36:12;10.10;99.90
20658;DHT22;10488;50.846;4.078;2023-12-29T03:38:38;10.10;99.90
20658;DHT22;10488;50.846;4.078;2023-12-29T03:41:04;10.10;99.90
20658;DHT22;10488;50.846;4.078;2023-12-29T03:43:29;10.00;99.90
20658;DHT22;10488;50.846;4.078;2023-12-29T03:45:55;10.10;99.90
20658;DHT22;10488;50.846;4.078;2023-12-29T03:48:21;10.10;99.90
20658;DHT22;10488;50.846;4.078;2023-12-29T03:50:47;10.10;99.90
20658;DHT22;10488;50.846;4.078;2023-12-29T03:53:12;10.20;99.90
20658;DHT22;10488;50.846;4.078;2023-12-29T03:55:40;10.10;99.90
20658;DHT22;10488;50.846;4.078;2023-12-29T03:58:06;10.10;99.90
20658;DHT22;10488;50.846;4.078;2023-12-29T04:00:32;10.20;99.90
20658;DHT22;10488;50.846;4.078;2023-12-29T04:02:57;10.10;99.90
20658;DHT22;10488;50.846;4.078;2023-12-29T04:05:23;10.10;99.90
20658;DHT22;10488;50.846;4.078;2023-12-29T04:07:48;10.10;99.90
20658;DHT22;10488;50.846;4.078;2023-12-29T04:10:14;10.00;99.90
20658;DHT22;10488;50.846;4.078;2023-12-29T04:12:40;10.10;99.90
20658;DHT22;10488;50.846;4.078;2023-12-29T04:15:06;10.00;99.90
20658;DHT22;10488;50.846;4.078;2023-12-29T04:17:32;10.00;99.90
20658;DHT22;10488;50.846;4.078;2023-12-29T04:19:57;10.00;99.90
20658;DHT22;10488;50.846;4.078;2023-12-29T04:22:23;10.10;99.90
20658;DHT22;10488;50.846;4.078;2023-12-29T04:24:49;10.00;99.90
20658;DHT22;10488;50.846;4.078;2023-12-29T04:27:15;10.00;99.90
20658;DHT22;10488;50.846;4.078;2023-12-29T04:29:40;10.00;99.90
20658;DHT22;10488;50.846;4.078;2023-12-29T04:32:06;10.00;99.90
20658;DHT22;10488;50.846;4.078;2023-12-29T04:34:32;10.10;99.90
20658;DHT22;10488;50.846;4.078;2023-12-29T04:36:58;10.00;99.90
20658;DHT22;10488;50.846;4.078;2023-12-29T04:39:24;10.00;99.90
20658;DHT22;10488;50.846;4.078;2023-12-29T04:41:50;10.00;99.90
20658;DHT22;10488;50.846;4.078;2023-12-29T04:44:15;10.10;99.90
20658;DHT22;10488;50.846;4.078;2023-12-29T04:46:41;10.10;99.90
20658;DHT22;10488;50.846;4.078;2023-12-29T04:49:07;10.00;99.90
20658;DHT22;10488;50.846;4.078;2023-12-29T04:51:34;10.00;99.90
20658;DHT22;10488;50.846;4.078;2023-12-29T04:53:59;10.00;99.90
20658;DHT22;10488;50.846;4.078;2023-12-29T04:56:25;10.00;99.90
20658;DHT22;10488;50.846;4.078;2023-12-29T04:58:54;10.00;99.90
20658;DHT22;10488;50.846;4.078;2023-12-29T05:01:19;10.10;99.90
20658;DHT22;10488;50.846;4.078;2023-12-29T05:03:45;10.10;99.90
20658;DHT22;10488;50.846;4.078;2023-12-29T05:06:10;10.10;99.90
20658;DHT22;10488;50.846;4.078;2023-12-29T05:08:36;10.20;99.90
20658;DHT22;10488;50.846;4.078;2023-12-29T05:11:02;10.20;99.90
20658;DHT22;10488;50.846;4.078;2023-12-29T05:13:27;10.10;99.90
20658;DHT22;10488;50.846;4.078;2023-12-29T05:15:53;10.10;99.90
20658;DHT22;10488;50.846;4.078;2023-12-29T05:18:18;10.20;99.90
20658;DHT22;10488;50.846;4.078;2023-12-29T05:20:44;10.10;99.90
20658;DHT22;10488;50.846;4.078;2023-12-29T05:23:10;10.10;99.90
20658;DHT22;10488;50.846;4.078;2023-12-29T05:25:35;10.10;99.90
20658;DHT22;10488;50.846;4.078;2023-12-29T05:28:01;10.10;99.90
20658;DHT22;10488;50.846;4.078;2023-12-29T05:30:27;10.10;99.90
20658;DHT22;10488;50.846;4.078;2023-12-29T05:32:53;10.00;99.90
20658;DHT22;10488;50.846;4.078;2023-12-29T05:35:19;10.00;99.90
20658;DHT22;10488;50.846;4.078;2023-12-29T05:37:44;10.00;99.90
20658;DHT22;10488;50.846;4.078;2023-12-29T05:40:10;10.00;99.90
20658;DHT22;10488;50.846;4.078;2023-12-29T05:42:36;10.00;99.90
20658;DHT22;10488;50.846;4.078;2023-12-29T05:45:02;10.00;99.90
20658;DHT22;10488;50.846;4.078;2023-12-29T05:47:27;10.00;99.90
20658;DHT22;10488;50.846;4.078;2023-12-29T05:49:53;10.00;99.90
20658;DHT22;10488;50.846;4.078;2023-12-29T05:52:19;9.90;99.90
20658;DHT22;10488;50.846;4.078;2023-12-29T05:54:44;9.90;99.90
20658;DHT22;10488;50.846;4.078;2023-12-29T05:57:10;9.90;99.90
20658;DHT22;10488;50.846;4.078;2023-12-29T05:59:36;9.80;99.90
20658;DHT22;10488;50.846;4.078;2023-12-29T06:02:01;9.90;99.90
20658;DHT22;10488;50.846;4.078;2023-12-29T06:04:28;9.70;99.90
20658;DHT22;10488;50.846;4.078;2023-12-29T06:06:53;9.70;99.90
20658;DHT22;10488;50.846;4.078;2023-12-29T06:09:19;9.70;99.90
20658;DHT22;10488;50.846;4.078;2023-12-29T06:11:45;9.60;99.90
20658;DHT22;10488;50.846;4.078;2023-12-29T06:14:10;9.60;99.90
20658;DHT22;10488;50.846;4.078;2023-12-29T06:16:36;9.60;99.90
20658;DHT22;10488;50.846;4.078;2023-12-29T06:19:02;9.60;99.90
20658;DHT22;10488;50.846;4.078;2023-12-29T06:21:27;9.60;99.90
20658;DHT22;10488;50.846;4.078;2023-12-29T06:23:53;9.60;99.90
20658;DHT22;10488;50.846;4.078;2023-12-29T06:26:20;9.60;99.90
20658;DHT22;10488;50.846;4.078;2023-12-29T06:28:46;9.60;99.90
20658;DHT22;10488;50.846;4.078;2023-12-29T06:31:13;9.60;99.90
20658;DHT22;10488;50.846;4.078;2023-12-29T06:33:42;9.60;99.90
20658;DHT22;10488;50.846;4.078;2023-12-29T06:36:08;9.50;99.90
20658;DHT22;10488;50.846;4.078;2023-12-29T06:38:35;9.60;99.90
20658;DHT22;10488;50.846;4.078;2023-12-29T06:41:02;9.60;99.90
20658;DHT22;10488;50.846;4.078;2023-12-29T06:43:28;9.50;99.90
20658;DHT22;10488;50.846;4.078;2023-12-29T06:45:54;9.60;99.90
20658;DHT22;10488;50.846;4.078;2023-12-29T06:48:19;9.60;99.90
20658;DHT22;10488;50.846;4.078;2023-12-29T06:50:45;9.50;99.90
20658;DHT22;10488;50.846;4.078;2023-12-29T06:53:11;9.60;99.90
20658;DHT22;10488;50.846;4.078;2023-12-29T06:55:37;9.60;99.90
20658;DHT22;10488;50.846;4.078;2023-12-29T06:58:06;9.60;99.90
20658;DHT22;10488;50.846;4.078;2023-12-29T07:00:31;9.60;99.90
20658;DHT22;10488;50.846;4.078;2023-12-29T07:02:57;9.60;99.90
20658;DHT22;10488;50.846;4.078;2023-12-29T07:05:23;9.60;99.90
20658;DHT22;10488;50.846;4.078;2023-12-29T07:07:48;9.60;99.90
20658;DHT22;10488;50.846;4.078;2023-12-29T07:10:14;9.60;99.90
20658;DHT22;10488;50.846;4.078;2023-12-29T07:12:43;9.60;99.90
20658;DHT22;10488;50.846;4.078;2023-12-29T07:15:09;9.60;99.90
20658;DHT22;10488;50.846;4.078;2023-12-29T07:17:35;9.60;99.90
20658;DHT22;10488;50.846;4.078;2023-12-29T07:20:00;9.50;99.90
20658;DHT22;10488;50.846;4.078;2023-12-29T07:22:26;9.60;99.90
20658;DHT22;10488;50.846;4.078;2023-12-29T07:24:53;9.60;99.90
20658;DHT22;10488;50.846;4.078;2023-12-29T07:27:18;9.70;99.90
20658;DHT22;10488;50.846;4.078;2023-12-29T07:29:44;9.70;99.90
20658;DHT22;10488;50.846;4.078;2023-12-29T07:32:10;9.80;99.90
20658;DHT22;10488;50.846;4.078;2023-12-29T07:34:35;9.70;99.90
20658;DHT22;10488;50.846;4.078;2023-12-29T07:37:01;9.70;99.90
20658;DHT22;10488;50.846;4.078;2023-12-29T07:39:27;9.80;99.90
20658;DHT22;10488;50.846;4.078;2023-12-29T07:41:52;9.80;99.90
20658;DHT22;10488;50.846;4.078;2023-12-29T07:44:18;9.80;99.90
20658;DHT22;10488;50.846;4.078;2023-12-29T07:46:44;9.70;99.90
20658;DHT22;10488;50.846;4.078;2023-12-29T07:49:10;9.80;99.90
20658;DHT22;10488;50.846;4.078;2023-12-29T07:51:40;9.80;99.90
20658;DHT22;10488;50.846;4.078;2023-12-29T07:54:06;9.80;99.90
20658;DHT22;10488;50.846;4.078;2023-12-29T07:56:32;9.80;99.90
20658;DHT22;10488;50.846;4.078;2023-12-29T07:58:58;9.80;99.90
20658;DHT22;10488;50.846;4.078;2023-12-29T08:01:23;9.80;99.90
20658;DHT22;10488;50.846;4.078;2023-12-29T08:03:49;9.80;99.90
20658;DHT22;10488;50.846;4.078;2023-12-29T08:06:15;9.90;99.90
20658;DHT22;10488;50.846;4.078;2023-12-29T08:08:41;9.90;99.90
20658;DHT22;10488;50.846;4.078;2023-12-29T08:11:15;9.90;99.90
20658;DHT22;10488;50.846;4.078;2023-12-29T08:13:43;9.90;99.90
20658;DHT22;10488;50.846;4.078;2023-12-29T08:16:09;9.90;99.90
20658;DHT22;10488;50.846;4.078;2023-12-29T08:18:34;10.00;99.90
20658;DHT22;10488;50.846;4.078;2023-12-29T08:21:01;10.10;99.90
20658;DHT22;10488;50.846;4.078;2023-12-29T08:23:26;10.00;99.90
20658;DHT22;10488;50.846;4.078;2023-12-29T08:25:52;10.10;99.90
20658;DHT22;10488;50.846;4.078;2023-12-29T08:28:19;10.20;99.90
20658;DHT22;10488;50.846;4.078;2023-12-29T08:30:45;10.20;99.90
20658;DHT22;10488;50.846;4.078;2023-12-29T08:33:11;10.10;99.90
20658;DHT22;10488;50.846;4.078;2023-12-29T08:35:40;10.20;99.90
20658;DHT22;10488;50.846;4.078;2023-12-29T08:38:06;10.10;99.90
20658;DHT22;10488;50.846;4.078;2023-12-29T08:40:32;10.20;99.90
20658;DHT22;10488;50.846;4.078;2023-12-29T08:42:57;10.30;99.90
20658;DHT22;10488;50.846;4.078;2023-12-29T08:45:23;10.50;99.90
20658;DHT22;10488;50.846;4.078;2023-12-29T08:47:48;10.40;99.90
20658;DHT22;10488;50.846;4.078;2023-12-29T08:50:14;10.50;99.90
20658;DHT22;10488;50.846;4.078;2023-12-29T08:52:40;10.40;99.90
20658;DHT22;10488;50.846;4.078;2023-12-29T08:55:06;10.50;99.90
20658;DHT22;10488;50.846;4.078;2023-12-29T08:57:32;10.30;99.90
20658;DHT22;10488;50.846;4.078;2023-12-29T08:59:57;10.30;99.90
20658;DHT22;10488;50.846;4.078;2023-12-29T09:02:23;10.50;99.90
20658;DHT22;10488;50.846;4.078;2023-12-29T09:04:49;10.40;99.90
20658;DHT22;10488;50.846;4.078;2023-12-29T09:07:14;10.40;99.90
20658;DHT22;10488;50.846;4.078;2023-12-29T09:09:40;10.40;99.90
20658;DHT22;10488;50.846;4.078;2023-12-29T09:12:05;10.50;99.90
20658;DHT22;10488;50.846;4.078;2023-12-29T09:14:31;10.50;99.90
20658;DHT22;10488;50.846;4.078;2023-12-29T09:17:00;10.50;99.90
20658;DHT22;10488;50.846;4.078;2023-12-29T09:19:25;10.50;99.90
20658;DHT22;10488;50.846;4.078;2023-12-29T09:21:51;10.50;99.90
20658;DHT22;10488;50.846;4.078;2023-12-29T09:24:17;10.50;99.90
20658;DHT22;10488;50.846;4.078;2023-12-29T09:26:42;10.40;99.90
20658;DHT22;10488;50.846;4.078;2023-12-29T09:29:08;10.40;99.90
20658;DHT22;10488;50.846;4.078;2023-12-29T09:31:33;10.30;99.90
20658;DHT22;10488;50.846;4.078;2023-12-29T09:33:59;10.30;99.90
20658;DHT22;10488;50.846;4.078;2023-12-29T09:36:25;10.40;99.90
20658;DHT22;10488;50.846;4.078;2023-12-29T09:38:51;10.30;99.90
20658;DHT22;10488;50.846;4.078;2023-12-29T09:41:18;10.30;99.90
20658;DHT22;10488;50.846;4.078;2023-12-29T09:43:48;10.40;99.90
20658;DHT22;10488;50.846;4.078;2023-12-29T09:46:16;10.40;99.90
20658;DHT22;10488;50.846;4.078;2023-12-29T09:48:46;10.50;99.90
20658;DHT22;10488;50.846;4.078;2023-12-29T09:51:12;10.50;99.90
20658;DHT22;10488;50.846;4.078;2023-12-29T09:53:39;10.40;99.90
20658;DHT22;10488;50.846;4.078;2023-12-29T09:56:08;10.50;99.90
20658;DHT22;10488;50.846;4.078;2023-12-29T09:58:34;10.70;99.90
20658;DHT22;10488;50.846;4.078;2023-12-29T10:01:04;10.70;99.90
20658;DHT22;10488;50.846;4.078;2023-12-29T10:03:30;10.80;99.90
20658;DHT22;10488;50.846;4.078;2023-12-29T10:05:59;10.90;99.90
20658;DHT22;10488;50.846;4.078;2023-12-29T10:08:27;11.00;99.90
20658;DHT22;10488;50.846;4.078;2023-12-29T10:10:54;10.90;99.90
20658;DHT22;10488;50.846;4.078;2023-12-29T10:13:21;10.90;99.90
20658;DHT22;10488;50.846;4.078;2023-12-29T10:18:35;11.10;99.90
20658;DHT22;10488;50.846;4.078;2023-12-29T10:21:21;11.10;99.90
20658;DHT22;10488;50.846;4.078;2023-12-29T10:26:34;11.10;99.90
20658;DHT22;10488;50.846;4.078;2023-12-29T10:29:00;11.10;99.90
20658;DHT22;10488;50.846;4.078;2023-12-29T10:31:26;11.00;99.90
20658;DHT22;10488;50.846;4.078;2023-12-29T10:33:52;11.10;99.90
20658;DHT22;10488;50.846;4.078;2023-12-29T10:36:18;11.00;99.90
20658;DHT22;10488;50.846;4.078;2023-12-29T10:38:43;11.00;99.90
20658;DHT22;10488;50.846;4.078;2023-12-29T10:41:13;11.00;99.90
20658;DHT22;10488;50.846;4.078;2023-12-29T10:43:40;11.00;99.90
20658;DHT22;10488;50.846;4.078;2023-12-29T10:46:07;11.00;99.90
20658;DHT22;10488;50.846;4.078;2023-12-29T10:48:36;11.00;99.90
20658;DHT22;10488;50.846;4.078;2023-12-29T10:51:03;11.00;99.90
20658;DHT22;10488;50.846;4.078;2023-12-29T10:53:33;11.00;99.90
20658;DHT22;10488;50.846;4.078;2023-12-29T10:55:59;10.90;99.90
20658;DHT22;10488;50.846;4.078;2023-12-29T10:58:29;11.00;99.90
20658;DHT22;10488;50.846;4.078;2023-12-29T11:00:58;11.10;99.90
20658;DHT22;10488;50.846;4.078;2023-12-29T11:03:25;11.20;99.90
20658;DHT22;10488;50.846;4.078;2023-12-29T11:06:01;11.20;99.90
20658;DHT22;10488;50.846;4.078;2023-12-29T11:08:27;11.20;99.90
20658;DHT22;10488;50.846;4.078;2023-12-29T11:10:54;11.30;99.90
20658;DHT22;10488;50.846;4.078;2023-12-29T11:13:20;11.20;99.90
20658;DHT22;10488;50.846;4.078;2023-12-29T11:15:47;11.20;99.90
20658;DHT22;10488;50.846;4.078;2023-12-29T11:18:16;11.30;99.90
20658;DHT22;10488;50.846;4.078;2023-12-29T11:20:44;11.20;99.90
20658;DHT22;10488;50.846;4.078;2023-12-29T11:23:10;11.30;99.90
20658;DHT22;10488;50.846;4.078;2023-12-29T11:25:38;11.30;99.90
20658;DHT22;10488;50.846;4.078;2023-12-29T11:28:10;11.30;99.90
20658;DHT22;10488;50.846;4.078;2023-12-29T11:30:36;11.20;99.90
20658;DHT22;10488;50.846;4.078;2023-12-29T11:33:08;11.20;99.90
20658;DHT22;10488;50.846;4.078;2023-12-29T11:35:50;11.20;99.90
20658;DHT22;10488;50.846;4.078;2023-12-29T11:41:33;11.10;99.90
20658;DHT22;10488;50.846;4.078;2023-12-29T11:44:02;11.10;99.90
20658;DHT22;10488;50.846;4.078;2023-12-29T11:46:42;11.20;99.90
20658;DHT22;10488;50.846;4.078;2023-12-29T11:49:11;11.20;99.90
20658;DHT22;10488;50.846;4.078;2023-12-29T11:54:06;11.00;99.90
20658;DHT22;10488;50.846;4.078;2023-12-29T11:56:39;11.00;99.90
20658;DHT22;10488;50.846;4.078;2023-12-29T11:59:23;11.00;99.90
20658;DHT22;10488;50.846;4.078;2023-12-29T12:01:57;11.20;99.90
20658;DHT22;10488;50.846;4.078;2023-12-29T12:04:42;11.10;99.90
20658;DHT22;10488;50.846;4.078;2023-12-29T12:12:55;10.90;99.90
20658;DHT22;10488;50.846;4.078;2023-12-29T12:20:23;10.70;99.90
20658;DHT22;10488;50.846;4.078;2023-12-29T12:22:59;10.80;99.90
20658;DHT22;10488;50.846;4.078;2023-12-29T12:25:26;10.70;99.90
20658;DHT22;10488;50.846;4.078;2023-12-29T12:27:53;10.70;99.90
20658;DHT22;10488;50.846;4.078;2023-12-29T12:30:20;10.80;99.90
20658;DHT22;10488;50.846;4.078;2023-12-29T12:32:47;10.70;99.90
20658;DHT22;10488;50.846;4.078;2023-12-29T12:35:22;10.70;99.90
20658;DHT22;10488;50.846;4.078;2023-12-29T12:37:47;10.70;99.90
20658;DHT22;10488;50.846;4.078;2023-12-29T12:40:25;10.70;99.90
20658;DHT22;10488;50.846;4.078;2023-12-29T12:42:51;10.70;99.90
20658;DHT22;10488;50.846;4.078;2023-12-29T12:45:20;10.80;99.90
20658;DHT22;10488;50.846;4.078;2023-12-29T12:47:52;10.90;99.90
20658;DHT22;10488;50.846;4.078;2023-12-29T12:50:20;10.90;99.90
20658;DHT22;10488;50.846;4.078;2023-12-29T12:52:46;11.00;99.90
20658;DHT22;10488;50.846;4.078;2023-12-29T12:55:12;10.90;99.90
20658;DHT22;10488;50.846;4.078;2023-12-29T12:57:39;10.90;99.90
20658;DHT22;10488;50.846;4.078;2023-12-29T13:00:06;10.80;99.90
20658;DHT22;10488;50.846;4.078;2023-12-29T13:02:34;10.80;99.90
20658;DHT22;10488;50.846;4.078;2023-12-29T13:05:00;10.90;99.90
20658;DHT22;10488;50.846;4.078;2023-12-29T13:07:27;10.90;99.90
20658;DHT22;10488;50.846;4.078;2023-12-29T13:09:55;11.00;99.90
20658;DHT22;10488;50.846;4.078;2023-12-29T13:12:21;11.10;99.90
20658;DHT22;10488;50.846;4.078;2023-12-29T13:14:47;11.20;99.90
20658;DHT22;10488;50.846;4.078;2023-12-29T13:17:14;11.10;99.90
20658;DHT22;10488;50.846;4.078;2023-12-29T13:19:41;11.10;99.90
20658;DHT22;10488;50.846;4.078;2023-12-29T13:22:11;11.10;99.90
20658;DHT22;10488;50.846;4.078;2023-12-29T13:24:44;11.20;99.90
20658;DHT22;10488;50.846;4.078;2023-12-29T13:27:11;11.20;99.90
20658;DHT22;10488;50.846;4.078;2023-12-29T13:29:41;11.30;99.90
20658;DHT22;10488;50.846;4.078;2023-12-29T13:37:18;11.10;99.90
20658;DHT22;10488;50.846;4.078;2023-12-29T13:42:19;11.00;99.90
20658;DHT22;10488;50.846;4.078;2023-12-29T13:44:47;10.90;99.90
20658;DHT22;10488;50.846;4.078;2023-12-29T13:47:14;10.80;99.90
20658;DHT22;10488;50.846;4.078;2023-12-29T13:49:40;10.90;99.90
20658;DHT22;10488;50.846;4.078;2023-12-29T13:52:06;10.90;99.90
20658;DHT22;10488;50.846;4.078;2023-12-29T13:54:40;10.90;99.90
20658;DHT22;10488;50.846;4.078;2023-12-29T13:57:07;10.90;99.90
20658;DHT22;10488;50.846;4.078;2023-12-29T13:59:32;10.90;99.90
20658;DHT22;10488;50.846;4.078;2023-12-29T14:02:02;11.00;99.90
20658;DHT22;10488;50.846;4.078;2023-12-29T14:04:28;10.90;99.90
20658;DHT22;10488;50.846;4.078;2023-12-29T14:07:03;11.10;99.90
20658;DHT22;10488;50.846;4.078;2023-12-29T14:09:29;11.00;99.90
20658;DHT22;10488;50.846;4.078;2023-12-29T14:11:55;11.00;99.90
20658;DHT22;10488;50.846;4.078;2023-12-29T14:14:24;10.90;99.90
20658;DHT22;10488;50.846;4.078;2023-12-29T14:16:51;11.00;99.90
20658;DHT22;10488;50.846;4.078;2023-12-29T14:19:17;11.00;99.90
20658;DHT22;10488;50.846;4.078;2023-12-29T14:21:43;11.00;99.90
20658;DHT22;10488;50.846;4.078;2023-12-29T14:24:16;11.20;99.90
20658;DHT22;10488;50.846;4.078;2023-12-29T14:29:18;11.10;99.90
20658;DHT22;10488;50.846;4.078;2023-12-29T14:31:45;10.90;99.90
20658;DHT22;10488;50.846;4.078;2023-12-29T14:34:12;10.90;99.90
20658;DHT22;10488;50.846;4.078;2023-12-29T14:36:41;11.00;99.90
20658;DHT22;10488;50.846;4.078;2023-12-29T14:39:07;11.20;99.90
20658;DHT22;10488;50.846;4.078;2023-12-29T14:41:35;11.00;99.90
20658;DHT22;10488;50.846;4.078;2023-12-29T14:44:01;11.00;99.90
20658;DHT22;10488;50.846;4.078;2023-12-29T14:46:27;11.00;99.90
20658;DHT22;10488;50.846;4.078;2023-12-29T14:48:54;10.90;99.90
20658;DHT22;10488;50.846;4.078;2023-12-29T14:51:19;10.90;99.90
20658;DHT22;10488;50.846;4.078;2023-12-29T14:53:47;10.80;99.90
20658;DHT22;10488;50.846;4.078;2023-12-29T14:56:16;10.80;99.90
20658;DHT22;10488;50.846;4.078;2023-12-29T14:58:43;10.80;99.90
20658;DHT22;10488;50.846;4.078;2023-12-29T15:01:09;10.70;99.90
20658;DHT22;10488;50.846;4.078;2023-12-29T15:03:35;10.70;99.90
20658;DHT22;10488;50.846;4.078;2023-12-29T15:06:01;10.60;99.90
20658;DHT22;10488;50.846;4.078;2023-12-29T15:08:28;10.60;99.90
20658;DHT22;10488;50.846;4.078;2023-12-29T15:11:03;10.60;99.90
20658;DHT22;10488;50.846;4.078;2023-12-29T15:13:30;10.60;99.90
20658;DHT22;10488;50.846;4.078;2023-12-29T15:16:00;10.50;99.90
20658;DHT22;10488;50.846;4.078;2023-12-29T15:18:27;10.50;99.90
20658;DHT22;10488;50.846;4.078;2023-12-29T15:20:55;10.70;99.90
20658;DHT22;10488;50.846;4.078;2023-12-29T15:23:21;10.70;99.90
20658;DHT22;10488;50.846;4.078;2023-12-29T15:25:48;10.80;99.90
20658;DHT22;10488;50.846;4.078;2023-12-29T15:28:15;10.80;99.90
20658;DHT22;10488;50.846;4.078;2023-12-29T15:30:42;10.70;99.90
20658;DHT22;10488;50.846;4.078;2023-12-29T15:33:08;10.70;99.90
20658;DHT22;10488;50.846;4.078;2023-12-29T15:35:34;10.80;99.90
20658;DHT22;10488;50.846;4.078;2023-12-29T15:37:59;10.90;99.90
20658;DHT22;10488;50.846;4.078;2023-12-29T15:40:25;10.70;99.90
20658;DHT22;10488;50.846;4.078;2023-12-29T15:42:50;10.80;99.90
20658;DHT22;10488;50.846;4.078;2023-12-29T15:45:16;10.80;99.90
20658;DHT22;10488;50.846;4.078;2023-12-29T15:47:44;10.80;99.90
20658;DHT22;10488;50.846;4.078;2023-12-29T15:50:10;10.90;99.90
20658;DHT22;10488;50.846;4.078;2023-12-29T15:52:35;10.90;99.90
20658;DHT22;10488;50.846;4.078;2023-12-29T15:55:01;10.90;99.90
20658;DHT22;10488;50.846;4.078;2023-12-29T15:57:27;10.90;99.90
20658;DHT22;10488;50.846;4.078;2023-12-29T15:59:52;10.70;99.90
20658;DHT22;10488;50.846;4.078;2023-12-29T16:02:18;10.70;99.90
20658;DHT22;10488;50.846;4.078;2023-12-29T16:04:44;10.70;99.90